Terminal Aerodrome Forecast
Issued by NWS Milwaukee/Sullivan, WI

Current Version | Previous Version | Text Only | Print | Product List | Glossary On
Versions: 1 2 3 4 5 6 7 8 9 10 11 12 13 14 15 16 17 18 19 20 21 22 23 24 25 26 27 28 29 30 31 32 33 34 35 36 37 38 39 40 41 42 43 44 45 46 47 48 49 50
000
FTUS43 KMKX 201720
TAFMKE
TAF
KMKE 201720Z 2018/2124 24013G20KT P6SM SCT030 BKN080
     FM202000 24013G20KT P6SM VCTS SCT030 BKN070CB
     FM210000 25008KT P6SM SCT060
     FM210600 26005KT P6SM VCTS BKN060CB
     FM211000 28009KT P6SM BKN020
     FM211400 31013G20KT P6SM BKN015
     FM211900 35015G24KT P6SM BKN025=

USA.gov is the U.S. government's official web portal to all federal, state and local government web resources and services.